YPKG/KGI METAR and TAF weather

Enter ICAO airport designator
Station Type Date Time Source
YPKG METAR 2019/08/22 08:00 UTC NOAA

YPKG 220800Z AUTO 33013KT 9999 // NCD 23/M10 Q1019


Station Type Date Time Source
YPKG Decoded METAR 2019/08/22 08:00 UTC NOAA

Station name not available
Aug 22, 2019 - 04:00 AM EDT / 2019.08.22 0800 UTC
Wind: from the NNW (330 degrees) at 15 MPH (13 KT):0
Visibility: greater than 7 mile(s):0
Temperature: 73 F (23 C)
Dew Point: 14 F (-10 C)
Relative Humidity: 10%
Pressure (altimeter): 30.09 in. Hg (1019 hPa)
ob: YPKG 220800Z AUTO 33013KT 9999 // NCD 23/M10 Q1019
cycle: 8

Station Type Date Time Source
YPKG TAF 2019/08/22 06:00 UTC NOAA

TAF YPKG 220505Z 2206/2306 33012KT CAVOK
FM221000 33007KT CAVOK
FM222300 30010KT 9999 -RA SCT025 SCT050
FM230100 24012KT 9999 -RA BKN020 BKN030
FM230500 24012KT 9999 -SHRA SCT030 SCT050
TEMPO 2301/2304 3000 RA BKN008

Example: see airport list